Time;durP1;ratioP1;P1;durP2;ratioP2;P2;SDS_P1;SDS_P2;PMS_P1;PMS_P2;Temp;Humidity;BMP_temperature;BMP_pressure;BME280_temperature;BME280_humidity;BME280_pressure;Samples;Min_cycle;Max_cycle;Signal;HPM_P1;HPM_P2
2021/01/19 00:01:45;;;;;;;27.65;12.73;;;;;;;-13.30;55.87;100937.64;1721690;81;21219;-59
2021/01/19 00:04:12;;;;;;;24.75;12.35;;;;;;;-13.40;56.03;100931.50;1763042;81;23693;-59
2021/01/19 00:06:40;;;;;;;24.40;11.08;;;;;;;-13.47;56.12;100934.70;1760516;81;21131;-59
2021/01/19 00:09:07;;;;;;;25.27;10.90;;;;;;;-13.50;57.07;100934.23;1752631;81;21117;-59
2021/01/19 00:11:35;;;;;;;23.18;10.90;;;;;;;-13.50;57.25;100937.14;1754178;79;21148;-59
2021/01/19 00:14:04;;;;;;;18.23;10.32;;;;;;;-13.52;57.33;100937.09;1759838;81;21219;-59
2021/01/19 00:16:31;;;;;;;17.23;10.72;;;;;;;-13.53;58.08;100930.34;1731190;81;21150;-61
2021/01/19 00:18:59;;;;;;;38.60;15.78;;;;;;;-13.51;58.24;100927.86;1736052;80;21172;-59
2021/01/19 00:21:26;;;;;;;21.10;12.47;;;;;;;-13.46;58.23;100926.30;1739982;81;21152;-58
2021/01/19 00:23:54;;;;;;;22.77;11.28;;;;;;;-13.38;58.14;100932.42;1742940;80;21164;-59
2021/01/19 00:26:21;;;;;;;12.73;7.45;;;;;;;-13.33;58.23;100930.88;1745180;80;21142;-59
2021/01/19 00:28:49;;;;;;;19.25;12.15;;;;;;;-13.27;57.54;100938.98;1742661;81;21625;-59
2021/01/19 00:31:17;;;;;;;18.75;10.45;;;;;;;-13.29;57.15;100935.56;1726865;81;21132;-59
2021/01/19 00:33:44;;;;;;;20.27;11.15;;;;;;;-13.33;57.32;100934.67;1743577;81;21195;-59
2021/01/19 00:36:11;;;;;;;21.37;11.90;;;;;;;-13.32;57.24;100927.50;1739727;80;21163;-59
2021/01/19 00:38:41;;;;;;;21.35;11.38;;;;;;;-13.29;57.18;100925.44;1743033;81;21561;-60
2021/01/19 00:41:09;;;;;;;31.33;11.20;;;;;;;-13.24;56.94;100920.47;1722562;81;21213;-59
2021/01/19 00:43:36;;;;;;;18.50;10.00;;;;;;;-13.20;56.77;100913.41;1723385;81;21231;-58
2021/01/19 00:46:04;;;;;;;16.80;9.80;;;;;;;-13.16;56.39;100918.98;1725159;81;21238;-59
2021/01/19 00:48:32;;;;;;;14.93;8.45;;;;;;;-13.14;56.15;100916.11;1743809;81;21167;-58
2021/01/19 00:51:02;;;;;;;21.42;11.00;;;;;;;-13.08;55.99;100912.44;1736661;81;21175;-58
2021/01/19 00:53:31;;;;;;;21.00;11.97;;;;;;;-13.02;55.48;100910.06;1742890;81;21241;-60
2021/01/19 00:55:59;;;;;;;19.90;11.55;;;;;;;-13.06;55.40;100909.56;1723038;81;21189;-59
2021/01/19 00:58:27;;;;;;;20.10;9.58;;;;;;;-13.04;55.40;100905.77;1741018;80;21134;-59
2021/01/19 01:00:56;;;;;;;24.85;9.18;;;;;;;-13.00;55.35;100907.58;1741592;80;21191;-59
2021/01/19 01:03:23;;;;;;;23.25;10.93;;;;;;;-13.00;55.45;100905.04;1738596;81;21190;-59
2021/01/19 01:05:50;;;;;;;21.40;9.43;;;;;;;-12.98;55.66;100904.24;1738446;80;23530;-59
2021/01/19 01:08:18;;;;;;;24.63;11.93;;;;;;;-13.01;55.83;100904.58;1737615;81;21200;-59
2021/01/19 01:10:46;;;;;;;16.30;9.93;;;;;;;-13.03;55.97;100908.77;1740539;80;21191;-59
2021/01/19 01:13:13;;;;;;;15.30;8.88;;;;;;;-13.08;56.91;100904.84;1714554;82;21173;-59
2021/01/19 01:15:41;;;;;;;19.15;10.00;;;;;;;-13.04;57.25;100907.91;1748310;80;21172;-59
2021/01/19 01:18:13;;;;;;;20.50;10.43;;;;;;;-13.01;56.73;100902.05;1759339;81;21367;-59
2021/01/19 01:20:42;;;;;;;17.52;9.18;;;;;;;-13.02;56.31;100900.36;1755125;81;21662;-59
2021/01/19 01:23:13;;;;;;;27.48;13.38;;;;;;;-13.06;56.50;100898.16;1761382;81;21164;-59
2021/01/19 01:25:39;;;;;;;25.52;10.93;;;;;;;-13.03;56.40;100897.36;1756467;81;21618;-59
2021/01/19 01:28:07;;;;;;;20.60;9.98;;;;;;;-12.97;56.26;100903.86;1755450;81;21183;-59
2021/01/19 01:30:34;;;;;;;25.45;10.78;;;;;;;-12.93;55.86;100898.88;1757780;81;21364;-59
2021/01/19 01:33:02;;;;;;;18.57;12.37;;;;;;;-12.92;55.48;100895.53;1760514;81;21157;-59
2021/01/19 01:35:30;;;;;;;16.32;8.23;;;;;;;-12.96;55.06;100896.29;1753548;81;21202;-61
2021/01/19 01:38:00;;;;;;;19.23;9.10;;;;;;;-12.99;55.04;100894.95;1730480;81;21242;-59
2021/01/19 01:40:27;;;;;;;18.60;8.93;;;;;;;-13.00;55.14;100897.02;1758059;80;21108;-60
2021/01/19 01:42:59;;;;;;;18.02;9.73;;;;;;;-12.97;55.26;100895.83;1759932;81;21237;-59
2021/01/19 01:45:28;;;;;;;20.23;8.00;;;;;;;-12.97;55.04;100894.56;1750641;79;21210;-59
2021/01/19 01:47:57;;;;;;;17.40;9.15;;;;;;;-12.95;55.18;100895.88;1754811;81;21163;-59
2021/01/19 01:50:25;;;;;;;19.92;11.10;;;;;;;-12.95;55.06;100897.98;1762330;81;21116;-59
2021/01/19 01:52:53;;;;;;;20.43;11.00;;;;;;;-12.96;55.07;100897.95;1730922;81;21186;-60
2021/01/19 01:55:20;;;;;;;22.35;11.33;;;;;;;-12.96;55.10;100903.89;1747740;81;21220;-59
2021/01/19 01:57:49;;;;;;;18.70;9.70;;;;;;;-12.95;55.09;100901.78;1751897;81;21217;-59
2021/01/19 02:00:18;;;;;;;25.12;10.82;;;;;;;-12.96;55.12;100897.56;1683351;81;21660;-59
2021/01/19 02:02:57;;;;;;;23.73;11.12;;;;;;;-12.99;55.14;100894.95;1739110;81;21165;-59
2021/01/19 02:05:25;;;;;;;19.32;10.63;;;;;;;-12.99;55.34;100895.34;1754262;79;21092;-59
2021/01/19 02:08:27;;;;;;;24.43;11.57;;;;;;;-12.91;55.37;100893.45;1733180;79;21194;-59
2021/01/19 02:11:26;;;;;;;25.45;12.00;;;;;;;-12.83;55.05;100897.84;1733216;81;21211;-59
2021/01/19 02:14:23;;;;;;;18.57;9.15;;;;;;;-12.81;54.80;100908.86;1734266;81;21664;-60
2021/01/19 02:17:21;;;;;;;24.75;11.60;;;;;;;-12.83;54.70;100907.97;1735759;81;21132;-60
2021/01/19 02:20:24;;;;;;;23.57;10.68;;;;;;;-12.89;54.85;100911.23;1735265;81;21203;-60
2021/01/19 02:23:00;;;;;;;15.28;8.48;;;;;;;-12.94;54.93;100908.58;1727476;82;21188;-60
2021/01/19 02:25:38;;;;;;;23.52;11.22;;;;;;;-12.99;54.92;100908.00;1734840;81;21220;-60
2021/01/19 02:28:45;;;;;;;22.10;10.80;;;;;;;-13.03;55.30;100910.03;1752920;81;21132;-60
2021/01/19 02:31:53;;;;;;;19.15;8.63;;;;;;;-13.04;55.52;100909.56;1717772;81;21190;-60
2021/01/19 02:34:55;;;;;;;23.40;10.63;;;;;;;-13.03;55.48;100903.27;1710580;81;21661;-60
2021/01/19 02:37:31;;;;;;;19.60;9.33;;;;;;;-13.02;55.19;100902.47;1693459;83;21310;-59
2021/01/19 02:40:07;;;;;;;17.87;9.25;;;;;;;-13.13;55.44;100902.61;1706502;81;21187;-59
2021/01/19 02:42:43;;;;;;;20.72;10.70;;;;;;;-13.23;55.91;100895.60;1737932;81;21176;-59
2021/01/19 02:45:11;;;;;;;17.87;10.15;;;;;;;-13.29;56.43;100897.16;1740368;81;21182;-58
2021/01/19 02:47:39;;;;;;;19.82;8.58;;;;;;;-13.29;56.89;100897.16;1753841;81;21223;-59
2021/01/19 02:50:10;;;;;;;19.92;10.25;;;;;;;-13.23;56.94;100901.94;1740739;81;21258;-59
2021/01/19 02:52:39;;;;;;;21.17;9.83;;;;;;;-13.17;56.95;100907.16;1745619;81;21136;-59
2021/01/19 02:55:08;;;;;;;25.05;10.93;;;;;;;-13.15;56.71;100911.84;1748141;81;21120;-58
2021/01/19 02:58:05;;;;;;;20.15;9.80;;;;;;;-13.13;56.58;100903.48;1753635;81;21149;-60
2021/01/19 03:00:59;;;;;;;20.25;8.83;;;;;;;-13.13;56.64;100912.35;1719739;82;21154;-60
2021/01/19 03:03:32;;;;;;;21.50;9.45;;;;;;;-13.15;56.50;100911.84;1705591;81;21268;-60
2021/01/19 03:06:08;;;;;;;25.30;12.35;;;;;;;-13.20;56.91;100903.28;1721372;82;21129;-60
2021/01/19 03:08:35;;;;;;;17.17;7.92;;;;;;;-13.19;57.16;100898.26;1703113;83;21207;-60
2021/01/19 03:11:03;;;;;;;22.05;9.88;;;;;;;-13.08;56.99;100901.04;1720320;81;21207;-60
2021/01/19 03:13:31;;;;;;;20.85;9.43;;;;;;;-13.05;56.94;100896.05;1734988;81;21126;-59
2021/01/19 03:16:08;;;;;;;21.70;9.60;;;;;;;-13.01;56.63;100900.39;1720350;82;21221;-60
2021/01/19 03:18:37;;;;;;;22.05;10.85;;;;;;;-12.98;56.47;100893.26;1727793;81;21147;-61
2021/01/19 03:21:05;;;;;;;18.95;8.65;;;;;;;-12.98;56.30;100888.19;1732684;81;21199;-61
2021/01/19 03:23:34;;;;;;;24.20;8.68;;;;;;;-12.96;56.16;100884.02;1756203;81;21151;-59
2021/01/19 03:26:02;;;;;;;23.15;10.82;;;;;;;-12.92;55.97;100889.61;1728416;81;21148;-60
2021/01/19 03:28:31;;;;;;;26.57;12.05;;;;;;;-12.95;55.60;100886.58;1715128;81;21828;-59
2021/01/19 03:30:59;;;;;;;17.85;9.93;;;;;;;-12.97;55.53;100890.77;1747932;81;21209;-60
2021/01/19 03:33:27;;;;;;;21.12;9.55;;;;;;;-13.01;55.64;100883.92;1726048;81;21199;-60
2021/01/19 03:35:54;;;;;;;19.23;9.43;;;;;;;-13.06;55.81;100887.15;1740625;81;21226;-60
2021/01/19 03:38:23;;;;;;;24.60;11.33;;;;;;;-13.09;56.01;100880.35;1733705;81;21203;-60
2021/01/19 03:40:54;;;;;;;22.10;9.58;;;;;;;-13.07;55.90;100883.77;1745040;80;21234;-60
2021/01/19 03:43:21;;;;;;;27.05;9.45;;;;;;;-13.07;55.89;100887.98;1756809;80;21147;-60
2021/01/19 03:45:48;;;;;;;23.70;10.85;;;;;;;-13.06;55.62;100891.83;1751576;80;21179;-60
2021/01/19 03:48:16;;;;;;;18.90;10.23;;;;;;;-13.05;55.29;100894.78;1727349;81;21127;-60
2021/01/19 03:50:45;;;;;;;14.03;7.28;;;;;;;-13.08;55.22;100887.11;1709412;83;21238;-60
2021/01/19 03:53:12;;;;;;;21.07;9.50;;;;;;;-13.07;55.20;100893.05;1738639;80;21184;-60
2021/01/19 03:55:39;;;;;;;19.40;9.13;;;;;;;-13.08;55.05;100892.17;1730017;81;21195;-60
2021/01/19 03:58:07;;;;;;;15.68;6.67;;;;;;;-13.01;55.01;100894.45;1738076;81;21109;-60
2021/01/19 04:00:34;;;;;;;17.95;7.90;;;;;;;-12.99;54.89;100893.68;1734179;81;21188;-60
2021/01/19 04:03:02;;;;;;;17.25;7.72;;;;;;;-12.95;54.76;100898.41;1727357;80;21191;-59
2021/01/19 04:05:30;;;;;;;17.57;7.85;;;;;;;-12.93;54.86;100892.54;1720879;82;21224;-59
2021/01/19 04:07:57;;;;;;;13.20;7.10;;;;;;;-12.90;54.63;100891.34;1759073;80;21136;-59
2021/01/19 04:10:25;;;;;;;21.87;9.15;;;;;;;-12.90;54.36;100887.55;1754631;80;21192;-59
2021/01/19 04:12:53;;;;;;;21.37;9.98;;;;;;;-12.97;54.26;100883.16;1713407;80;21242;-59
2021/01/19 04:15:22;;;;;;;17.17;8.88;;;;;;;-13.02;54.28;100887.27;1747903;81;21268;-59
2021/01/19 04:17:49;;;;;;;19.82;8.88;;;;;;;-13.07;54.32;100882.92;1721817;82;21216;-59
2021/01/19 04:20:17;;;;;;;12.58;6.33;;;;;;;-13.13;54.30;100879.81;1743066;81;21510;-59
2021/01/19 04:22:44;;;;;;;12.55;6.45;;;;;;;-13.17;54.33;100886.48;1747205;79;21098;-60
2021/01/19 04:25:12;;;;;;;16.35;8.00;;;;;;;-13.19;54.46;100891.08;1734510;81;21140;-60
2021/01/19 04:27:39;;;;;;;22.80;9.73;;;;;;;-13.19;54.49;100889.39;1757590;81;21175;-60
2021/01/19 04:30:08;;;;;;;23.07;11.53;;;;;;;-13.16;54.43;100892.39;1754105;81;21223;-60
2021/01/19 04:32:37;;;;;;;14.35;7.17;;;;;;;-13.17;54.28;100891.55;1756601;79;21211;-60
2021/01/19 04:35:07;;;;;;;15.40;5.92;;;;;;;-13.19;54.23;100892.34;1754391;79;21128;-60
2021/01/19 04:37:36;;;;;;;13.50;5.42;;;;;;;-13.22;54.29;100896.06;1759947;79;21153;-61
2021/01/19 04:40:06;;;;;;;21.25;8.98;;;;;;;-13.27;54.26;100892.98;1758110;79;21191;-60
2021/01/19 04:42:35;;;;;;;14.87;6.12;;;;;;;-13.30;54.36;100901.77;1758085;80;22206;-60
2021/01/19 04:45:08;;;;;;;12.58;6.83;;;;;;;-13.29;54.37;100902.23;1730775;81;21195;-60
2021/01/19 04:47:37;;;;;;;17.10;6.47;;;;;;;-13.28;54.51;100898.02;1754841;81;21203;-60
2021/01/19 04:50:08;;;;;;;11.68;6.80;;;;;;;-13.29;54.46;100895.90;1757848;81;21489;-60
2021/01/19 04:52:40;;;;;;;15.35;7.30;;;;;;;-13.29;54.29;100902.23;1758860;79;21543;-59
2021/01/19 04:55:25;;;;;;;15.40;8.45;;;;;;;-13.33;54.33;100907.20;1705799;82;21463;-60
2021/01/19 04:58:02;;;;;;;16.40;5.72;;;;;;;-13.40;54.33;100915.47;1758051;79;21176;-60
2021/01/19 05:00:35;;;;;;;13.95;6.25;;;;;;;-13.42;54.51;100920.48;1752264;79;21183;-60
2021/01/19 05:03:21;;;;;;;10.32;5.08;;;;;;;-13.45;54.50;100914.07;1754253;79;21219;-61
2021/01/19 05:06:03;;;;;;;;;;;;;;;-13.49;54.48;100916.94;1755315;79;21183;-60
2021/01/19 05:08:42;;;;;;;16.80;7.95;;;;;;;-13.54;54.47;100923.55;1732027;81;21170;-60
2021/01/19 05:11:26;;;;;;;16.23;6.47;;;;;;;-13.67;54.60;100930.36;1713804;82;21212;-61
2021/01/19 05:14:01;;;;;;;14.38;5.75;;;;;;;-13.72;54.65;100932.77;1753588;79;21219;-61
2021/01/19 05:16:34;;;;;;;13.00;5.37;;;;;;;-13.71;54.71;100934.91;1750647;81;21650;-60
2021/01/19 05:19:04;;;;;;;16.02;5.97;;;;;;;-13.70;54.69;100940.39;1735880;80;21314;-60
2021/01/19 05:21:39;;;;;;;18.30;7.37;;;;;;;-13.71;54.79;100938.70;1742902;80;21278;-60
2021/01/19 05:24:07;;;;;;;12.68;5.85;;;;;;;-13.73;54.84;100939.05;1728622;81;21218;-59
2021/01/19 05:26:35;;;;;;;18.25;8.13;;;;;;;-13.73;54.75;100942.45;1735669;80;21199;-59
2021/01/19 05:29:05;;;;;;;13.10;6.75;;;;;;;-13.74;54.75;100938.20;1751025;80;21163;-59
2021/01/19 05:31:33;;;;;;;16.93;6.47;;;;;;;-13.77;54.59;100936.84;1733287;80;21219;-59
2021/01/19 05:34:12;;;;;;;14.68;7.17;;;;;;;-13.82;54.72;100938.80;1716273;81;21253;-59
2021/01/19 05:36:47;;;;;;;16.45;6.87;;;;;;;-13.83;54.79;100937.95;1735240;80;21678;-58
2021/01/19 05:39:19;;;;;;;13.18;6.78;;;;;;;-13.84;54.91;100938.75;1735926;80;21187;-58
2021/01/19 05:41:53;;;;;;;14.75;7.10;;;;;;;-13.83;54.85;100950.60;1740756;81;21211;-59
2021/01/19 05:44:26;;;;;;;12.60;6.70;;;;;;;-13.80;54.85;100956.14;1737486;81;21183;-59
2021/01/19 05:46:59;;;;;;;16.60;7.10;;;;;;;-13.82;54.62;100952.30;1718714;81;21450;-59
2021/01/19 05:49:38;;;;;;;13.32;6.08;;;;;;;-13.90;54.48;100954.63;1735462;80;21207;-59
2021/01/19 05:52:10;;;;;;;13.10;6.05;;;;;;;-13.96;54.50;100947.27;1743165;80;21201;-59
2021/01/19 05:54:46;;;;;;;15.83;7.30;;;;;;;-14.01;54.54;100947.13;1727159;81;21242;-59
2021/01/19 05:57:23;;;;;;;18.35;8.50;;;;;;;-14.04;54.50;100949.56;1743796;81;21351;-59
2021/01/19 06:00:02;;;;;;;15.80;6.28;;;;;;;-14.08;54.53;100954.09;1721867;81;21234;-58
2021/01/19 06:02:42;;;;;;;15.93;8.05;;;;;;;-14.09;54.62;100950.69;1742213;80;21206;-58
2021/01/19 06:05:16;;;;;;;12.93;6.10;;;;;;;-14.07;54.57;100949.09;1737715;80;21206;-61
2021/01/19 06:07:46;;;;;;;16.00;7.08;;;;;;;-14.08;54.53;100946.09;1736817;81;21199;-58
2021/01/19 06:10:18;;;;;;;14.90;6.87;;;;;;;-14.07;54.54;100953.27;1737127;80;21647;-59
2021/01/19 06:12:46;;;;;;;14.85;6.70;;;;;;;-14.05;54.44;100947.88;1742965;80;21568;-59
2021/01/19 06:15:14;;;;;;;20.43;9.25;;;;;;;-14.07;54.39;100955.80;1744907;80;21222;-59
2021/01/19 06:17:43;;;;;;;18.57;7.97;;;;;;;-14.14;54.53;100948.44;1743395;80;21207;-58
2021/01/19 06:20:12;;;;;;;12.07;6.70;;;;;;;-14.14;54.65;100953.49;1755160;79;21184;-59
2021/01/19 06:22:40;;;;;;;15.45;7.92;;;;;;;-14.08;54.60;100954.09;1755352;79;21129;-58
2021/01/19 06:25:12;;;;;;;15.50;6.78;;;;;;;-14.08;54.64;100958.74;1727024;81;22538;-58
2021/01/19 06:27:40;;;;;;;18.90;8.68;;;;;;;-14.09;54.70;100962.07;1728462;81;21521;-58
2021/01/19 06:30:13;;;;;;;13.58;8.28;;;;;;;-14.09;54.65;100961.22;1750620;79;21740;-58
2021/01/19 06:32:48;;;;;;;23.40;8.03;;;;;;;-14.09;54.73;100962.07;1760552;79;21211;-58
2021/01/19 06:35:19;;;;;;;14.45;7.55;;;;;;;-14.05;54.74;100956.72;1754864;79;21638;-58
2021/01/19 06:37:52;;;;;;;15.48;8.93;;;;;;;-14.00;54.64;100962.77;1752709;79;21369;-57
2021/01/19 06:40:24;;;;;;;16.85;8.35;;;;;;;-13.99;54.59;100968.27;1762209;79;21608;-58
2021/01/19 06:43:02;;;;;;;18.80;8.80;;;;;;;-13.95;54.61;100974.27;1754981;81;21219;-58
2021/01/19 06:45:32;;;;;;;21.07;7.90;;;;;;;-13.90;54.58;100976.14;1727432;81;21221;-58
2021/01/19 06:48:04;;;;;;;20.40;8.70;;;;;;;-13.78;54.51;100974.36;1754314;79;21744;-58
2021/01/19 06:50:38;;;;;;;15.63;8.53;;;;;;;-13.69;54.11;100975.87;1754487;79;21384;-58
2021/01/19 06:53:23;;;;;;;19.32;9.85;;;;;;;-13.68;53.81;100972.54;1727911;81;21246;-61
2021/01/19 06:56:13;;;;;;;27.15;11.20;;;;;;;-13.70;53.76;100975.44;1747974;80;21199;-58
2021/01/19 06:58:55;;;;;;;22.95;8.28;;;;;;;-13.69;53.96;100965.75;1702458;82;21228;-58
2021/01/19 07:01:28;;;;;;;21.20;10.03;;;;;;;-13.64;53.88;100973.48;1723476;81;21471;-58
2021/01/19 07:04:25;;;;;;;18.10;7.65;;;;;;;-13.63;53.70;100979.00;1707504;82;23860;-59
2021/01/19 07:07:19;;;;;;;14.47;7.10;;;;;;;-13.61;53.67;100982.81;1732020;81;22159;-58
2021/01/19 07:10:16;;;;;;;15.45;7.80;;;;;;;-13.66;53.70;100975.96;1728461;81;21155;-58
2021/01/19 07:13:05;;;;;;;18.57;6.33;;;;;;;-13.63;54.01;100981.53;1735063;81;21594;-57
2021/01/19 07:16:05;;;;;;;14.65;5.67;;;;;;;-13.57;53.91;100980.42;1730162;79;21655;-58
2021/01/19 07:19:18;;;;;;;18.45;7.65;;;;;;;-13.48;53.99;100978.54;1756680;79;21262;-57
2021/01/19 07:22:00;;;;;;;20.90;7.62;;;;;;;-13.36;53.74;100986.48;1750854;79;21203;-58
2021/01/19 07:24:31;;;;;;;11.50;3.98;;;;;;;-13.19;54.63;100982.25;1751614;79;21222;-60
2021/01/19 07:26:59;;;;;;;11.00;5.47;;;;;;;-13.09;54.99;100991.39;1729771;81;21235;-59
2021/01/19 07:29:27;;;;;;;14.85;6.72;;;;;;;-13.08;54.89;100989.70;1756535;79;21530;-59
2021/01/19 07:31:57;;;;;;;14.50;6.03;;;;;;;-13.09;55.15;100995.19;1745582;79;22341;-62
2021/01/19 07:34:28;;;;;;;13.32;5.65;;;;;;;-13.00;55.07;100988.64;1746707;81;21533;-59
2021/01/19 07:36:56;;;;;;;13.72;6.47;;;;;;;-12.92;55.18;100993.08;1749046;80;21495;-58
2021/01/19 07:39:23;;;;;;;11.48;6.05;;;;;;;-12.83;54.77;100991.60;1731825;80;21214;-61
2021/01/19 07:41:52;;;;;;;15.13;6.22;;;;;;;-12.79;54.38;100992.11;1750426;79;21212;-60
2021/01/19 07:44:25;;;;;;;8.25;4.47;;;;;;;-12.78;53.78;100998.48;1710867;81;21321;-60
2021/01/19 07:46:59;;;;;;;12.25;5.00;;;;;;;-12.80;54.06;100999.29;1749085;79;21196;-61
2021/01/19 07:49:30;;;;;;;10.20;4.08;;;;;;;-12.79;53.51;101002.25;1739503;79;21202;-60
2021/01/19 07:51:57;;;;;;;12.82;5.25;;;;;;;-12.81;53.52;100999.67;1746867;79;21209;-60
2021/01/19 07:54:28;;;;;;;14.90;4.90;;;;;;;-12.79;53.15;100999.33;1673335;81;21617;-60
2021/01/19 07:56:58;;;;;;;11.50;6.03;;;;;;;-12.70;53.20;100998.69;1750156;79;21166;-59
2021/01/19 07:59:26;;;;;;;13.15;6.67;;;;;;;-12.60;52.72;100991.75;1729944;79;21137;-58
2021/01/19 08:01:58;;;;;;;16.32;7.25;;;;;;;-12.52;52.18;100999.14;1744536;79;21192;-59
2021/01/19 08:04:32;;;;;;;14.75;5.55;;;;;;;-12.53;51.77;100995.30;1753895;81;21159;-59
2021/01/19 08:07:19;;;;;;;8.83;4.10;;;;;;;-12.60;51.99;101002.31;1725433;81;21637;-57
2021/01/19 08:09:47;;;;;;;9.23;5.00;;;;;;;-12.66;51.97;101005.53;1759333;79;21405;-57
2021/01/19 08:27:00;;;;;;;17.25;7.30;;;;;;;-10.73;49.07;101005.26;1816233;77;22040;-58
2021/01/19 08:29:30;;;;;;;14.40;6.70;;;;;;;-10.76;48.52;101011.55;1794283;78;21156;-59
2021/01/19 08:32:08;;;;;;;18.85;7.65;;;;;;;-10.90;49.02;101009.20;1819639;76;22242;-58
2021/01/19 08:34:38;;;;;;;16.67;8.38;;;;;;;-11.04;48.89;101000.07;1779209;79;21658;-58
2021/01/19 08:37:07;;;;;;;11.48;5.65;;;;;;;-11.11;48.51;100999.10;1797941;79;21392;-59
2021/01/19 08:39:35;;;;;;;13.30;6.37;;;;;;;-11.18;48.86;101001.06;1788149;79;21264;-58
2021/01/19 08:42:04;;;;;;;13.32;6.97;;;;;;;-11.23;49.03;100993.77;1793449;79;21630;-59
2021/01/19 08:44:33;;;;;;;16.57;6.80;;;;;;;-11.24;48.68;100989.54;1791630;79;21195;-59
2021/01/19 08:47:01;;;;;;;13.95;6.95;;;;;;;-11.38;49.25;100999.84;1797238;79;21562;-59
2021/01/19 08:49:35;;;;;;;14.13;5.75;;;;;;;-11.63;50.37;100998.06;1786447;79;21147;-59
2021/01/19 08:52:05;;;;;;;16.27;7.40;;;;;;;-11.74;50.74;100992.78;1797761;78;21559;-59
2021/01/19 08:54:33;;;;;;;16.10;6.12;;;;;;;-11.80;51.01;100991.38;1794261;78;21199;-59
2021/01/19 08:57:01;;;;;;;13.55;8.35;;;;;;;-11.78;51.33;100989.75;1803329;78;21144;-59
2021/01/19 08:59:30;;;;;;;14.07;6.20;;;;;;;-11.70;50.96;100983.16;1796665;79;21186;-57
2021/01/19 09:01:58;;;;;;;11.83;6.22;;;;;;;-11.63;50.72;100980.30;1797999;78;21521;-60
2021/01/19 09:04:27;;;;;;;14.30;7.45;;;;;;;-11.56;49.59;100977.08;1768979;79;21123;-59
2021/01/19 09:07:11;;;;;;;13.90;4.83;;;;;;;-11.53;49.70;100969.91;1802700;79;21115;-58
2021/01/19 09:09:46;;;;;;;13.00;6.17;;;;;;;-11.47;49.40;100968.35;1743720;82;21410;-58
2021/01/19 09:12:17;;;;;;;14.80;6.50;;;;;;;-11.48;49.30;100965.39;1720308;81;21624;-57
2021/01/19 09:14:52;;;;;;;14.28;5.53;;;;;;;-11.51;49.11;100973.36;1720495;81;21493;-58
2021/01/19 09:17:26;;;;;;;17.60;8.10;;;;;;;-11.58;49.47;100969.84;1794276;79;21128;-59
2021/01/19 09:20:06;;;;;;;14.98;7.90;;;;;;;-11.60;49.77;100968.55;1792516;79;21140;-58
2021/01/19 09:22:37;;;;;;;15.38;6.25;;;;;;;-11.51;49.68;100968.28;1786726;79;22254;-57
2021/01/19 09:25:06;;;;;;;12.60;6.40;;;;;;;-11.42;49.28;100968.45;1767787;79;21140;-58
2021/01/19 09:27:33;;;;;;;19.77;6.40;;;;;;;-11.41;49.23;100963.82;1799932;79;21363;-58
2021/01/19 09:30:08;;;;;;;22.50;7.28;;;;;;;-11.40;49.33;100968.05;1800945;79;21207;-59
2021/01/19 09:32:41;;;;;;;19.30;6.42;;;;;;;-11.40;48.95;100964.24;1767712;79;21567;-58
2021/01/19 09:35:12;;;;;;;20.88;9.08;;;;;;;-11.47;49.19;100964.54;1799049;79;21116;-56
2021/01/19 09:37:41;;;;;;;14.75;7.58;;;;;;;-11.50;49.39;100959.82;1804715;79;21153;-57
2021/01/19 09:40:10;;;;;;;12.13;6.95;;;;;;;-11.40;49.48;100961.31;1802664;79;21198;-57
2021/01/19 09:42:40;;;;;;;13.45;7.17;;;;;;;-11.29;49.14;100956.84;1803597;79;21604;-58
2021/01/19 09:45:10;;;;;;;19.90;8.53;;;;;;;-11.28;48.91;100959.80;1780353;79;21636;-59
2021/01/19 09:47:40;;;;;;;17.92;7.80;;;;;;;-11.25;48.87;100962.41;1775717;79;21165;-58
2021/01/19 09:50:10;;;;;;;22.75;9.73;;;;;;;-11.17;49.10;100957.05;1797298;79;21188;-58
2021/01/19 09:52:40;;;;;;;17.62;9.38;;;;;;;-11.02;49.05;100948.84;1799063;79;22235;-59
2021/01/19 09:55:17;;;;;;;21.37;10.45;;;;;;;-10.89;48.63;100957.12;1718494;79;21211;-59
2021/01/19 09:57:44;;;;;;;15.35;8.03;;;;;;;-10.86;48.50;100951.22;1800585;79;21587;-59
2021/01/19 10:00:13;;;;;;;20.25;9.88;;;;;;;-10.78;48.41;100952.20;1816031;77;21186;-57
2021/01/19 10:02:41;;;;;;;18.50;11.48;;;;;;;-10.72;48.72;100948.50;1800874;78;21172;-58
2021/01/19 10:05:10;;;;;;;17.30;9.73;;;;;;;-10.68;48.47;100943.88;1796646;79;21175;-57
2021/01/19 10:07:37;;;;;;;20.75;12.18;;;;;;;-10.57;48.40;100944.47;1796917;79;21184;-58
2021/01/19 10:10:11;;;;;;;14.53;7.83;;;;;;;-10.45;48.21;100940.85;1801756;79;21155;-58
2021/01/19 10:12:40;;;;;;;16.95;8.18;;;;;;;-10.33;48.02;100938.91;1802032;79;21160;-58
2021/01/19 10:15:10;;;;;;;17.25;9.18;;;;;;;-10.24;47.78;100931.78;1712752;82;21690;-58
2021/01/19 10:17:37;;;;;;;23.77;11.05;;;;;;;-10.17;47.56;100930.62;1720682;81;21187;-58
2021/01/19 10:20:15;;;;;;;13.60;7.25;;;;;;;-10.14;47.63;100931.91;1789085;79;21179;-58
2021/01/19 10:22:45;;;;;;;19.50;10.63;;;;;;;-10.10;47.22;100931.56;1798547;79;21183;-59
2021/01/19 10:25:34;;;;;;;32.53;10.45;;;;;;;-10.10;47.41;100923.50;1777785;79;21096;-59
2021/01/19 10:28:04;;;;;;;21.17;9.98;;;;;;;-10.03;47.27;100921.04;1799085;79;21163;-63
2021/01/19 10:30:35;;;;;;;15.38;8.58;;;;;;;-10.05;47.26;100921.02;1797028;79;21152;-61
2021/01/19 10:33:04;;;;;;;20.10;10.70;;;;;;;-10.04;47.38;100922.70;1794412;79;21147;-61
2021/01/19 10:35:37;;;;;;;24.65;12.82;;;;;;;-10.10;47.20;100915.86;1742273;80;21170;-60
2021/01/19 10:38:06;;;;;;;19.45;9.83;;;;;;;-10.11;47.49;100914.56;1724252;81;21217;-59
2021/01/19 10:40:36;;;;;;;20.52;10.78;;;;;;;-10.12;47.56;100915.38;1793772;79;21124;-60
2021/01/19 10:43:12;;;;;;;14.95;7.70;;;;;;;-10.11;47.50;100914.13;1796410;79;22677;-59
2021/01/19 10:45:42;;;;;;;20.88;9.45;;;;;;;-10.10;47.44;100908.22;1767497;79;21168;-60
2021/01/19 10:48:20;;;;;;;21.45;11.05;;;;;;;-10.10;47.31;100908.66;1800444;79;21191;-59
2021/01/19 10:50:49;;;;;;;12.95;7.90;;;;;;;-10.03;47.53;100910.43;1798675;78;21227;-60
2021/01/19 10:53:29;;;;;;;16.57;9.08;;;;;;;-9.94;47.04;100901.62;1792882;79;21142;-57
2021/01/19 10:55:57;;;;;;;24.70;11.75;;;;;;;-9.93;47.28;100896.97;1794825;79;21382;-57
2021/01/19 10:58:24;;;;;;;25.02;11.73;;;;;;;-9.78;47.09;100898.00;1798279;79;21714;-58
2021/01/19 11:00:52;;;;;;;18.52;9.13;;;;;;;-9.69;46.80;100898.52;1801957;79;21151;-59
2021/01/19 11:03:21;;;;;;;16.80;8.48;;;;;;;-9.63;46.82;100897.29;1777031;79;21218;-59
2021/01/19 11:05:50;;;;;;;21.33;12.88;;;;;;;-9.61;46.46;100888.00;1802620;79;21112;-59
2021/01/19 11:08:18;;;;;;;30.85;12.20;;;;;;;-9.59;46.49;100887.59;1802262;79;21362;-59
2021/01/19 11:10:46;;;;;;;18.07;9.38;;;;;;;-9.49;46.44;100882.17;1798698;79;21144;-59
2021/01/19 11:13:13;;;;;;;22.65;8.85;;;;;;;-9.48;46.50;100880.04;1792254;79;21176;-58
2021/01/19 11:15:41;;;;;;;17.48;8.88;;;;;;;-9.44;46.43;100876.70;1792690;79;21686;-59
2021/01/19 11:18:11;;;;;;;16.50;8.08;;;;;;;-9.43;46.48;100877.12;1793617;79;21206;-57
2021/01/19 11:20:42;;;;;;;17.90;11.85;;;;;;;-9.43;46.50;100883.48;1766395;79;21203;-61
2021/01/19 11:23:10;;;;;;;21.70;10.15;;;;;;;-9.43;46.46;100877.99;1775721;79;21282;-59
2021/01/19 11:25:39;;;;;;;22.35;12.55;;;;;;;-9.47;46.22;100870.30;1771001;79;21576;-59
2021/01/19 11:28:09;;;;;;;22.35;11.30;;;;;;;-9.59;46.28;100870.59;1799644;79;21218;-59
2021/01/19 11:30:36;;;;;;;20.08;11.15;;;;;;;-9.69;46.67;100868.80;1798888;78;21100;-61
2021/01/19 11:33:04;;;;;;;18.70;9.80;;;;;;;-9.75;47.08;100867.45;1795656;79;21191;-60
2021/01/19 11:35:35;;;;;;;16.95;9.25;;;;;;;-9.81;47.13;100865.70;1789439;78;21188;-60
2021/01/19 11:38:03;;;;;;;20.32;10.08;;;;;;;-9.81;47.33;100861.03;1797146;79;21155;-61
2021/01/19 11:40:31;;;;;;;18.12;8.28;;;;;;;-9.78;47.31;100853.44;1802361;79;21223;-60
2021/01/19 11:43:01;;;;;;;17.92;8.15;;;;;;;-9.75;47.29;100855.98;1768977;79;21192;-59
2021/01/19 11:45:28;;;;;;;14.68;7.45;;;;;;;-9.73;47.20;100861.55;1793265;79;21431;-59